METAR Data
IDs: Format: Raw Decoded Include TAF

Data at: 1957 UTC 18 Apr 2021

KECP 181853Z 32005KT 10SM BKN065 22/13 A2989 RMK AO2 SLP133 T02170133
KECP 181753Z 30007KT 10SM SCT020 BKN050 OVC085 22/14 A2990 RMK AO2 SLP138 60000 T02170139 10217 20161 58012
KECP 181653Z 33004KT 10SM FEW020 BKN049 OVC090 21/16 A2991 RMK AO2 LTG DSNT E AND SE SLP141 T02110161
KECP 181553Z 00000KT 10SM FEW016 SCT021 BKN100 21/16 A2994 RMK AO2 SLP149 T02060156
KECP 181453Z 00000KT 10SM SCT008 BKN047 18/16 A2994 RMK AO2 SLP149 60000 T01830156 51010
KECP 181423Z 00000KT 10SM SCT008 BKN047 18/16 A2994 RMK AO2 T01780156
KECP 181353Z 00000KT 10SM BKN006 BKN047 17/16 A2994 RMK AO2 RAB1255E23 SLP149 P0000 T01720156
KECP 181338Z 00000KT 10SM BKN005 OVC045 17/16 A2994 RMK AO2 RAB1255E23 P0000 T01720161
KECP 181330Z 00000KT 10SM SCT005 OVC045 17/16 A2994 RMK AO2 RAB1255E23 P0000 T01720161
KECP 181253Z 00000KT 10SM FEW046 SCT080 OVC110 17/16 A2992 RMK AO2 RAE1159B07E18 SLP143 P0000 T01670156
KECP 181226Z 00000KT 10SM FEW005 FEW043 OVC120 16/16 A2993 RMK AO2 RAE1159B07E18 P0000 T01610161
KECP 181153Z 00000KT 10SM -RA FEW039 SCT100 BKN120 16/16 A2991 RMK AO2 RAE11B44 SLP140 P0000 60036 70106 T01610156 10167 20161 50020
KECP 181053Z 00000KT 10SM -RA FEW005 BKN036 OVC120 16/16 A2991 RMK AO2 PRESFR SLP140 P0016 T01610156
KECP 180953Z AUTO 28004KT 4SM RA BR SCT003 BKN080 OVC100 17/16 A2990 RMK AO2 SLP135 P0008 T01670161
KECP 180853Z AUTO 36005KT 7SM -RA BKN002 BKN045 OVC110 17/16 A2985 RMK AO2 RAE23B41 SLP119 P0001 60012 T01670161 58011
KECP 180753Z AUTO 00000KT 8SM -RA BKN003 OVC110 17/16 A2990 RMK AO2 SLP135 P0003 T01670161
KECP 180743Z AUTO 22003KT 8SM RA BKN003 BKN011 OVC110 17/16 A2990 RMK AO2 P0002 T01670161
KECP 180734Z AUTO 00000KT 10SM -RA SCT003 BKN021 OVC110 17/16 A2990 RMK AO2 LTG DSNT S P0001 T01670161
KECP 180720Z AUTO 00000KT 10SM -RA FEW002 SCT027 OVC110 17/17 A2989 RMK AO2 P0001 T01670167
KECP 180653Z AUTO 31006KT 9SM -RA FEW046 FEW090 BKN110 17/16 A2989 RMK AO2 SLP134 P0008 T01670161
KECP 180635Z AUTO 31006KT 6SM RA BR SCT004 BKN090 OVC110 17/16 A2989 RMK AO2 P0007 T01670161
KECP 180626Z AUTO 31009KT 7SM RA BKN004 BKN055 OVC080 17/16 A2990 RMK AO2 P0005 T01670161
KECP 180617Z AUTO 30007KT 5SM +RA BR SCT003 BKN070 OVC110 17/16 A2990 RMK AO2 P0004 T01670161
KECP 180608Z AUTO 30007KT 9SM -RA BKN003 BKN080 BKN110 17/16 A2990 RMK AO2 P0001 T01670161
KECP 180553Z AUTO 32006KT 10SM -RA SCT002 BKN110 17/16 A2988 RMK AO2 RAB06 SLP130 P0001 60007 T01670161 10178 20167 55024
KECP 180522Z AUTO 00000KT 10SM -RA OVC002 17/17 A2987 RMK AO2 RAB06 P0000 T01670167
KECP 180458Z AUTO 10005KT 10SM BKN001 OVC110 17/16 A2986 RMK AO2 T01670161
KECP 180453Z AUTO 10006KT 10SM SCT002 OVC100 17/16 A2986 RMK AO2 RAE42 SLP123 P0002 T01670161 402060150
KECP 180437Z AUTO 05004KT 10SM -RA SCT004 OVC100 17/16 A2988 RMK AO2 PRESFR P0002 T01670161
KECP 180353Z AUTO 00000KT 10SM -RA OVC003 17/17 A2995 RMK AO2 SLP154 P0003 T01720167
KECP 180323Z AUTO 30006KT 9SM -RA BKN002 BKN120 17/17 A2993 RMK AO2 P0001 T01720167
KECP 180306Z AUTO 30009KT 10SM -RA FEW002 SCT120 17/17 A2992 RMK AO2 P0000 T01720167
KECP 180253Z AUTO 31007KT 10SM -RA FEW080 BKN110 17/17 A2991 RMK AO2 RAE19B39 SLP139 P0000 60001 T01720167 51032
KECP 180153Z 17003KT 10SM -RA SCT005 BKN085 BKN110 17/17 A2988 RMK AO2 SLP129 P0001 T01720172
KECP 180053Z 30006KT 7SM -RA OVC004 17/17 A2989 RMK AO2 LTG DSNT SE RAE2357B50 CIG 003V008 PRESRR SLP131 P0000 T01720167
KECP 172353Z 07006KT 3SM -RA BR BKN004 BKN010 OVC014 17/17 A2982 RMK AO2 LTG DSNT S SLP107 P0005 60060 T01720167 10206 20172 58014
KECP 172253Z 10003KT 2SM RA BR BKN004 OVC080 17/17 A2987 RMK AO2 LTG DSNT ALQDS TSB25E42 SLP125 P0029 T01720172
KECP 172248Z 09003KT 2SM -RA BR BKN004 OVC080 17/17 A2986 RMK AO2 LTG DSNT ALQDS TSB25E42 P0028
KECP 172231Z VRB03KT 2SM +TSRA BR BKN004 OVC080 17/17 A2986 RMK AO2 LTG DSNT E-SW TSB25 P0022 T01720167
KECP 172218Z 00000KT 2SM R16/5500VP6000FT VCTS RA BR BKN004 OVC080 17/17 A2986 RMK AO2 LTG DSNT SE-W P0015 T01720172
KECP 172158Z 33008KT 1 1/2SM R16/5000VP6000FT +RA BR BKN004 OVC080 18/17 A2985 RMK AO2 LTG DSNT W P0002 T01780172
KECP 172153Z 32010KT 1 3/4SM R16/5000VP6000FT VCTS +RA BR BKN040 OVC075 18/17 A2986 RMK AO2 LTG DSNT W TSB2056E11 SLP121 P0026 T01780172
KECP 172146Z 31007KT 2SM R16/5000VP6000FT VCTS -RA BR FEW036 SCT048 OVC075 18/17 A2986 RMK AO2 LTG DSNT W TSB2056E11 P0018 T01780172
KECP 172139Z 34006KT 2SM R16/5000VP6000FT RA BR FEW050 BKN070 OVC080 18/17 A2985 RMK AO2 LTG DSNT NE AND W TSB2056E11 P0016 T01830172
KECP 172129Z 00000KT 2SM +RA BR BKN008 OVC060 18/18 A2985 RMK AO2 LTG DSNT NE AND E AND W TSB2056E11 P0013 T01780178
KECP 172115Z 34004KT 2SM VCTS RA BR BKN008 OVC060 18/17 A2985 RMK AO2 LTG DSNT NE AND E AND W TSB2056E11 PRESFR P0009 T01830172
KECP 172109Z 31004KT 2SM R16/6000VP6000FT TSRA BR FEW033 BKN042 OVC060 18/17 A2986 RMK AO2 LTG DSNT ALQDS TSB2056 P0008 T01830172
KECP 172058Z 29008KT 1SM R16/4500VP6000FT TSRA BR OVC042 19/17 A2988 RMK AO2 LTG DSNT W-NE TSB56 PRESRR P0004 T01890172
KECP 172053Z 30006KT 10SM R16/6000VP6000FT VCTS -RA OVC042 19/17 A2987 RMK AO2 LTG DSNT W-NE RAB00E09B28 PRESRR SLP127 P0000 60000 T01940167 53001
KECP 172041Z 05003KT 10SM VCTS -RA FEW017 OVC041 19/17 A2984 RMK AO2 LTG DSNT W-NE RAB00E09B28 P0000 T01940172
KECP 172012Z 31005KT 10SM FEW035 OVC045 19/17 A2987 RMK AO2 LTG DSNT W-NE RAB00E09 P0000 T01940167
KECP 171953Z 33004KT 10SM VCTS OVC046 20/17 A2985 RMK AO2 LTG DSNT W-N RAB31E47 SLP119 P0000 T02000167
KECP 171853Z 01004KT 10SM SCT015 OVC047 21/16 A2986 RMK AO2 SLP121 T02060161
KECP 171753Z 36005KT 10SM BKN013 BKN023 OVC049 19/16 A2987 RMK AO2 SLP126 60003 T01940161 10194 20156 50000
KECP 171700Z 03003KT 10SM BKN010 BKN050 OVC075 19/16 A2988 RMK AO2 CIG 008V012 T01890161
KECP 171653Z 01003KT 10SM BKN008 BKN050 OVC070 19/16 A2989 RMK AO2 RAE1559 SLP132 P0000 T01890161
KECP 171553Z 04004KT 10SM -RA OVC007 17/16 A2990 RMK AO2 RAB49 SLP138 P0000 T01720161
KECP 171453Z 05008KT 10SM BKN005 BKN070 OVC085 17/16 A2987 RMK AO2 SLP126 60003 T01720156 50008
KECP 171436Z 04006KT 10SM SCT005 BKN012 OVC070 17/16 A2988 RMK AO2 T01670156
KECP 171421Z 03005KT 10SM FEW005 SCT012 OVC070 17/16 A2989 RMK AO2 T01670156
KECP 171353Z 01009KT 6SM BR BKN005 OVC012 16/16 A2988 RMK AO2 RAE36 SLP129 P0001 T01610156
KECP 171318Z 33005KT 4SM -RA BR BKN005 BKN014 OVC110 16/15 A2989 RMK AO2 P0000 T01560150
KECP 171253Z 35006KT 5SM -RA BR SCT005 BKN028 OVC080 16/15 A2986 RMK AO2 RAB24 SLP124 P0002 T01560150
KECP 171229Z 34006KT 3SM RA BR SCT003 BKN026 16/15 A2988 RMK AO2 RAB24 P0000 T01560150
KECP 171153Z 33004KT 10SM OVC085 16/14 A2984 RMK AO2 SLP117 60020 70084 T01560144 10161 20150 53003
KECP 171053Z 00000KT 10SM BKN090 OVC110 16/15 A2982 RMK AO2 RAE25 SLP109 P0000 T01560150
KECP 171028Z AUTO 05003KT 10SM FEW004 SCT110 16/15 A2978 RMK AO2 RAE25 P0000 T01560150
KECP 170953Z AUTO 12008KT 6SM -RA BR OVC110 15/14 A2979 RMK AO2 PRESFR SLP099 P0008 T01500144
KECP 170853Z AUTO 00000KT 8SM RA BKN110 16/14 A2984 RMK AO2 RAB02 SLP115 P0004 60012 T01560144 55009